Airfield :
LOGIN :

Register | Disclaimer

   EN    FR    IT 

 










Legend :    VFR   Marginal VFR   IFR   Intensive IFR   Very Intensive IFR
Visi :
Ceiling :
>= 8 km
>= 3000ft
5 to 8 km
1000 to 3000 ft
1500m to 5 km
500 to 1000 ft
800 to 1500m
200 to 500 ft
< 800m
< 200 ft
Symbols :   Thunderstorms  Fog  Heavy snow  Heavy precipitations  Wind > 20 kt
SIGMETs :     Misc.  Thunderstorms  Icing  Turbulence  Mountain Waves  Volcanic Ashes






- Airport Elevation : 1247 ft
- IATA code : PRG


LKPR - Praha Ruzyne

CURRENT METAR :
  • 271600Z 21007KT CAVOK M02/M05 Q1012 NOSIG

EXPIRED METARs :
  • 271530Z 21005KT 9999 FEW019 M00/M04 Q1012 NOSIG
  • 271500Z 24007KT 9999 FEW019 00/M04 Q1013 NOSIG
  • 271430Z 23005KT 9999 FEW019 01/M03 Q1013 NOSIG
  • 271400Z 22006KT 9999 FEW018 01/M03 Q1013 NOSIG
  • 271330Z 22009KT 9999 FEW017 01/M03 Q1013 NOSIG

TAF TAF LKPR
Valid from the 27 at 12:00 until the 28 at 18:00 UTC


271100Z 2712/2818 24012KT 9999 SCT035
BECMG 2719/2721 9999 BKN020
TEMPO 2721/2818 20010KT 3000 -SN BR SCT007 BKN010
PROB30
TEMPO 2803/2814 24012G24KT 1200 SN BR BKN005



MET'MAP, your aeronautical weather chart ! - Copyright ORBIFLY December 2007 - Disclaimer

ORBIFLY MET'MAP TEAM :

Programming & Development : Alexandra Zaïnal
Concept & original design : Baudouin d'Aumeries
Assistance for programming : Marc-Olivier Méhu
Technical & hardware support : Manuel Goepfert

Contact : metmap@orbifly.com




SOURCES & CREDITS :

   NOAA